Flight Briefing

Flight
SQS18
Departure Arrival
Kualanamu International (WIMM)
Click to view NOTAMS
Tapak Tuan (WITA)
Click to view NOTAMS
Departure Time Arrival Time
09:00 09:30
Aircraft Distance
C208B 100.006
Departure METAR Arrival METAR
WIMM 181030Z 13005KT 9999 BKN017 27/24 Q1008 NOSIG
Route



Notes
Additional Data
View recent IFR Routes data



Data Courtesy of FlightAware